New Marshfield, Ohio
Current Conditions -  °F | °C
As of 5:15 AM on Thursday 27 Nov 2014 (Local Time) from KUNI Reporting Station
Scattered Clouds Scattered Clouds  
Wind Chill: 29°   Ceiling: Unl
Heat Index: 29°   Visibility: 10mi
Dew Point: 25°   Wind: 0mph
Humidity: 88%   Direction: NA
Pressure: 30.05"   Gusts: NA
Location:  39.33°N, 82.25°W
Report Text: KUNI 271015Z AUTO 00000KT 10SM SCT120 M02/M04 A3005 RMK AO2 T10191037
Loading
Personal Weather Stations






























Interactive Weather Map New forecast layout! Learn more

10-Day Weather Forecast

Advertisements
Track Severe Weather on mobile